»·PEaware :: N4114C KCMA-KSNA

N4114C :: KCMA-KSNA

FLIGHT INFORMATION

Flight Status: Arrived
Operator: Privately registered:
United States
More flights under this callsign
Pilot: Jasen B. (27581)
Aircraft: Unknown
(DA62)
More flights by this aircraft type
Origin: KCMA Camarillo
United States
Destination: KSNA John Wayne-Orange Co
United States
More flights between these airports :: More routes between these airports
Route: KCMA CHATY LAX WILMA KSNA
File this flight plan on PilotEdge
Remarks: CAT10
Altitude:
(Current/Filed)
4,500ft
Speed:
(Current/Filed)
140kts
Departed: 14-Jan-20 07:03 PM
Arrived: 14-Jan-20 08:32 PM
Distance/Time
Traveled:
69nm/1:29
Distance/Time
To Go:
Arrived

Flight Plot

Page will automatically refresh every two minutes.

Flight plan parsing failed; only flown route is shown


Map Options




Map Legend


Flown Route
Filed Route
Departure Airport
Arrival Airport
Navaid (VOR, NDB)
Fix

Horizontal Profiles

Position Reports

Time Latitude Longitude Heading Altitude Ground
Speed
14-Jan-20 18:51 34.210350 -119.076470 90 79ft 0kts
14-Jan-20 18:52 34.210350 -119.076470 90 79ft 0kts
14-Jan-20 18:53 34.210350 -119.076470 90 79ft 0kts
14-Jan-20 18:54 34.210350 -119.076470 90 79ft 0kts
14-Jan-20 18:55 34.210350 -119.076470 90 79ft 0kts
14-Jan-20 18:56 34.210559 -119.076101 12 79ft 7kts
14-Jan-20 18:57 34.210889 -119.081718 271 76ft 16kts
14-Jan-20 18:58 34.210978 -119.086749 273 73ft 11kts
14-Jan-20 18:59 34.210970 -119.087432 89 71ft 20kts
14-Jan-20 19:00 34.212059 -119.084628 0 74ft 20kts
14-Jan-20 19:01 34.212919 -119.084620 0 76ft 0kts
14-Jan-20 19:02 34.213708 -119.090626 271 69ft 80kts
14-Jan-20 19:03 34.208078 -119.118026 192 663ft 93kts
14-Jan-20 19:04 34.180940 -119.124447 198 1383ft 113kts
14-Jan-20 19:05 34.154342 -119.142257 189 2280ft 114kts
14-Jan-20 19:06 34.122788 -119.148621 189 3171ft 116kts
14-Jan-20 19:07 34.090670 -119.153237 156 4070ft 118kts
14-Jan-20 19:08 34.082896 -119.112172 92 4388ft 152kts
14-Jan-20 19:09 34.081511 -119.063137 91 5143ft 129kts
14-Jan-20 19:10 34.053213 -119.046364 193 5386ft 157kts
14-Jan-20 19:11 34.008935 -119.059457 193 5381ft 167kts
14-Jan-20 19:12 33.963629 -119.072861 193 5380ft 168kts
14-Jan-20 19:13 33.919991 -119.073715 122 5384ft 167kts
14-Jan-20 19:14 33.947179 -119.042372 10 5382ft 168kts
14-Jan-20 19:15 33.993385 -119.031869 10 5380ft 168kts
14-Jan-20 19:16 34.039646 -119.021349 10 5380ft 170kts
14-Jan-20 19:17 34.086170 -119.010761 10 5380ft 170kts
14-Jan-20 19:18 34.132636 -119.000175 10 5380ft 170kts
14-Jan-20 19:19 34.179111 -118.989574 10 5380ft 170kts
14-Jan-20 19:20 34.225518 -118.978975 10 5380ft 169kts
14-Jan-20 19:21 34.256877 -118.949538 110 5314ft 167kts
14-Jan-20 19:22 34.215248 -118.936662 190 4641ft 166kts
14-Jan-20 19:23 34.213932 -118.982545 259 3458ft 157kts
14-Jan-20 19:24 34.212869 -119.026390 270 1507ft 119kts
14-Jan-20 19:25 34.213461 -119.064966 270 443ft 105kts
14-Jan-20 19:26 34.213731 -119.094301 269 66ft 40kts
14-Jan-20 19:27 34.212328 -119.095732 174 65ft 23kts
14-Jan-20 19:28 34.210824 -119.093482 6 66ft 0kts
14-Jan-20 19:37 34.210824 -119.093482 6 66ft 0kts
14-Jan-20 19:38 34.210824 -119.093482 6 66ft 0kts
14-Jan-20 19:39 34.210824 -119.093482 6 66ft 0kts
14-Jan-20 19:40 34.210824 -119.093482 6 66ft 0kts
14-Jan-20 19:41 34.210907 -119.086376 89 73ft 24kts
14-Jan-20 19:42 34.212714 -119.084619 359 75ft 0kts
14-Jan-20 19:43 34.213646 -119.084840 285 76ft 19kts
14-Jan-20 19:44 34.213799 -119.111010 269 385ft 95kts
14-Jan-20 19:45 34.216892 -119.141849 321 1040ft 96kts
14-Jan-20 19:46 34.232505 -119.124961 66 1737ft 96kts
14-Jan-20 19:47 34.250578 -119.099627 47 2824ft 98kts
14-Jan-20 19:48 34.269115 -119.075028 47 3952ft 100kts
14-Jan-20 19:49 34.287985 -119.049978 47 5068ft 102kts
14-Jan-20 19:50 34.311248 -119.019090 47 5391ft 152kts
14-Jan-20 19:51 34.341613 -118.978847 47 5381ft 165kts
14-Jan-20 19:52 34.369219 -118.933820 53 5381ft 167kts
14-Jan-20 19:53 34.396307 -118.888253 53 5390ft 167kts
14-Jan-20 19:54 34.423520 -118.842469 53 5390ft 167kts
14-Jan-20 19:55 34.457186 -118.839521 294 5397ft 166kts
14-Jan-20 19:56 34.449398 -118.892023 246 5390ft 167kts
14-Jan-20 19:57 34.417963 -118.905113 110 5394ft 166kts
14-Jan-20 19:58 34.401353 -118.855367 129 5390ft 167kts
14-Jan-20 19:59 34.373427 -118.810229 125 5390ft 167kts
14-Jan-20 20:00 34.346640 -118.764028 124 5390ft 167kts
14-Jan-20 20:01 34.320051 -118.717796 124 5390ft 167kts
14-Jan-20 20:02 34.293444 -118.671533 124 5390ft 167kts
14-Jan-20 20:03 34.266751 -118.625175 124 5390ft 167kts
14-Jan-20 20:04 34.236091 -118.584099 151 5390ft 167kts
14-Jan-20 20:05 34.193945 -118.560303 155 5389ft 166kts
14-Jan-20 20:06 34.151412 -118.538450 156 5380ft 166kts
14-Jan-20 20:07 34.108532 -118.517117 157 5381ft 167kts
14-Jan-20 20:08 34.065458 -118.495939 157 5380ft 167kts
14-Jan-20 20:09 34.022197 -118.474765 157 5380ft 167kts
14-Jan-20 20:10 33.978994 -118.453668 157 5380ft 167kts
14-Jan-20 20:11 33.936060 -118.432240 145 5379ft 167kts
14-Jan-20 20:12 33.900326 -118.396706 136 5380ft 167kts
14-Jan-20 20:13 33.865897 -118.358688 137 5380ft 167kts
14-Jan-20 20:14 33.831450 -118.321418 138 5380ft 168kts
14-Jan-20 20:15 33.796529 -118.283879 137 5380ft 168kts
14-Jan-20 20:16 33.761809 -118.246285 137 5380ft 168kts
14-Jan-20 20:17 33.726963 -118.208653 137 5380ft 168kts
14-Jan-20 20:18 33.692238 -118.171222 137 5380ft 167kts
14-Jan-20 20:19 33.658723 -118.132577 109 5377ft 167kts
14-Jan-20 20:20 33.666050 -118.078100 85 5380ft 166kts
14-Jan-20 20:21 33.680358 -118.029782 57 4882ft 161kts
14-Jan-20 20:22 33.701556 -117.982445 61 4195ft 160kts
14-Jan-20 20:23 33.722249 -117.935552 61 3507ft 158kts
14-Jan-20 20:24 33.736654 -117.886194 76 2829ft 156kts
14-Jan-20 20:25 33.739110 -117.834855 95 2149ft 155kts
14-Jan-20 20:26 33.749702 -117.788513 46 1612ft 136kts
14-Jan-20 20:28 33.757529 -117.818233 233 1171ft 123kts
14-Jan-20 20:29 33.725599 -117.836585 208 950ft 111kts
14-Jan-20 20:30 33.699076 -117.854007 207 480ft 100kts
14-Jan-20 20:31 33.676363 -117.868381 204 60ft 54kts
14-Jan-20 20:32 33.674687 -117.868561 160 60ft 0kts
14-Jan-20 20:33 33.673758 -117.867269 119 60ft 0kts
14-Jan-20 20:34 33.673499 -117.865185 140 60ft 0kts
14-Jan-20 20:35 33.673499 -117.865185 140 60ft 0kts

Navigation Log

Ident Type
Flight plan parsing failed, navigation log unavailable